createdAt,value
2022-12-15T00:01:20.211Z,89738.78
2022-12-15T00:04:05.337Z,89754.19
2022-12-15T00:06:50.148Z,89747.81
2022-12-15T00:09:34.908Z,89739.69
2022-12-15T00:12:19.937Z,89741.53
2022-12-15T00:15:04.741Z,89741.88
2022-12-15T00:17:49.602Z,89740.63
2022-12-15T00:20:34.205Z,89737.88
2022-12-15T00:23:25.616Z,89737.31
2022-12-15T00:26:10.400Z,89744.31
2022-12-15T00:28:54.947Z,89733.19
2022-12-15T00:31:39.878Z,89740.53
2022-12-15T00:34:24.669Z,89748.22
2022-12-15T00:37:09.640Z,89739.13
2022-12-15T00:39:35.943Z,89738.81
2022-12-15T00:42:02.247Z,89723.81
2022-12-15T00:44:28.561Z,89727.22
2022-12-15T00:46:54.913Z,89721.81
2022-12-15T00:49:48.638Z,89729.06
2022-12-15T00:52:33.869Z,89727.63
2022-12-15T00:55:18.587Z,89730.41
2022-12-15T00:58:03.227Z,89733.00
2022-12-15T01:00:48.141Z,89739.69
2022-12-15T01:03:34.221Z,89735.03
2022-12-15T01:06:19.289Z,89724.19
2022-12-15T01:09:04.002Z,89726.97
2022-12-15T01:11:48.747Z,89728.28
2022-12-15T01:14:33.530Z,89734.47
2022-12-15T01:17:18.209Z,89733.94
2022-12-15T01:20:03.053Z,89735.09
2022-12-15T01:22:29.657Z,89741.16
2022-12-15T01:24:55.945Z,89738.31
2022-12-15T01:27:22.210Z,89737.06
2022-12-15T01:29:48.502Z,89747.44
2022-12-15T01:32:14.806Z,89741.78
2022-12-15T01:34:41.136Z,89750.81
2022-12-15T01:37:07.424Z,89744.75
2022-12-15T01:39:52.358Z,89748.22
2022-12-15T01:42:18.653Z,89762.88
2022-12-15T01:44:46.096Z,89765.00
2022-12-15T01:47:12.491Z,89760.03
2022-12-15T01:49:38.809Z,89764.34
2022-12-15T01:52:05.648Z,89765.72
2022-12-15T01:54:36.667Z,89771.94
2022-12-15T01:57:04.065Z,89766.81
2022-12-15T01:59:34.345Z,89772.88
2022-12-15T02:02:00.747Z,89768.00
2022-12-15T02:04:27.075Z,89757.03
2022-12-15T02:06:53.409Z,89771.16
2022-12-15T02:09:19.729Z,89763.19
2022-12-15T02:11:56.141Z,89764.66
2022-12-15T02:14:41.279Z,89756.69
2022-12-15T02:17:07.556Z,89759.00
2022-12-15T02:19:43.589Z,89756.44
2022-12-15T02:22:15.877Z,89750.03
2022-12-15T02:24:49.757Z,89753.53
2022-12-15T02:27:34.790Z,89740.72
2022-12-15T02:30:30.616Z,89742.50
2022-12-15T02:33:29.652Z,89734.19
2022-12-15T02:35:57.314Z,89740.56
2022-12-15T02:38:34.422Z,89733.09
2022-12-15T02:41:01.017Z,89729.84
2022-12-15T02:43:27.906Z,89723.63
2022-12-15T02:46:13.482Z,89721.28
2022-12-15T02:48:52.503Z,89717.16
2022-12-15T02:51:24.092Z,89728.38
2022-12-15T02:53:50.302Z,89729.44
2022-12-15T02:56:35.395Z,89729.88
2022-12-15T02:59:03.635Z,89737.84
2022-12-15T03:01:37.383Z,89739.19
2022-12-15T03:04:04.482Z,89731.84
2022-12-15T03:06:30.742Z,89739.81
2022-12-15T03:08:57.050Z,89736.84
2022-12-15T03:11:23.311Z,89733.78
2022-12-15T03:13:50.424Z,89743.69
2022-12-15T03:16:16.779Z,89734.97
2022-12-15T03:18:43.101Z,89736.59
2022-12-15T03:21:09.398Z,89736.00
2022-12-15T03:23:35.656Z,89738.84
2022-12-15T03:26:01.960Z,89738.56
2022-12-15T03:28:28.705Z,89746.72
2022-12-15T03:30:56.307Z,89747.63
2022-12-15T03:33:22.581Z,89747.75
2022-12-15T03:35:49.714Z,89745.84
2022-12-15T03:38:15.993Z,89744.50
2022-12-15T03:40:42.324Z,89742.34
2022-12-15T03:43:08.608Z,89744.63
2022-12-15T03:45:34.969Z,89742.91
2022-12-15T03:48:01.568Z,89747.22
2022-12-15T03:50:28.153Z,89735.38
2022-12-15T03:53:03.655Z,89744.09
2022-12-15T03:55:30.018Z,89738.41
2022-12-15T03:57:56.489Z,89741.06
2022-12-15T04:00:22.874Z,89742.91
2022-12-15T04:02:50.374Z,89740.59
2022-12-15T04:05:20.748Z,89729.50
2022-12-15T04:07:47.059Z,89733.22
2022-12-15T04:10:13.335Z,89726.31
2022-12-15T04:12:39.736Z,89726.31
2022-12-15T04:15:06.813Z,89716.09
2022-12-15T04:17:33.100Z,89724.69
2022-12-15T04:20:11.323Z,89716.81
2022-12-15T04:22:37.655Z,89722.09
2022-12-15T04:25:23.098Z,89724.28
2022-12-15T04:28:07.843Z,89725.50
2022-12-15T04:30:52.631Z,89727.59
2022-12-15T04:33:38.324Z,89721.78
2022-12-15T04:36:23.862Z,89732.66
2022-12-15T04:39:08.597Z,89729.50
2022-12-15T04:41:53.243Z,89727.47
2022-12-15T04:44:38.001Z,89733.81
2022-12-15T04:47:23.073Z,89726.56
2022-12-15T04:50:07.828Z,89729.75
2022-12-15T04:52:52.609Z,89724.94
2022-12-15T04:55:37.346Z,89730.03
2022-12-15T04:58:25.687Z,89717.38
2022-12-15T05:01:10.807Z,89719.53
2022-12-15T05:03:55.581Z,89709.66
2022-12-15T05:06:40.284Z,89714.63
2022-12-15T05:09:25.085Z,89706.47
2022-12-15T05:12:09.909Z,89716.03
2022-12-15T05:14:54.736Z,89708.00
2022-12-15T05:17:41.602Z,89713.53
2022-12-15T05:20:27.265Z,89700.06
2022-12-15T05:23:12.992Z,89702.03
2022-12-15T05:25:57.908Z,89712.09
2022-12-15T05:28:42.704Z,89710.28
2022-12-15T05:31:27.582Z,89711.56
2022-12-15T05:33:57.194Z,89702.31
2022-12-15T05:36:27.348Z,89693.31
2022-12-15T05:38:53.613Z,89694.88
2022-12-15T05:41:20.105Z,89695.84
2022-12-15T05:43:46.457Z,89695.94
2022-12-15T05:46:12.893Z,89699.88
2022-12-15T05:48:39.219Z,89700.78
2022-12-15T05:51:05.901Z,89702.09
2022-12-15T05:53:32.667Z,89703.78
2022-12-15T05:56:02.845Z,89703.09
2022-12-15T05:58:29.122Z,89698.41
2022-12-15T06:00:55.456Z,89696.47
2022-12-15T06:03:21.726Z,89691.09
2022-12-15T06:05:53.075Z,89693.97
2022-12-15T06:08:23.820Z,89690.22
2022-12-15T06:10:54.409Z,89689.78
2022-12-15T06:13:21.274Z,89689.63
2022-12-15T06:15:57.899Z,89696.13
2022-12-15T06:18:24.561Z,89687.28
2022-12-15T06:20:56.434Z,89685.41
2022-12-15T06:23:22.993Z,89699.00
2022-12-15T06:25:49.266Z,89689.34
2022-12-15T06:28:16.731Z,89691.28
2022-12-15T06:30:43.013Z,89674.41
2022-12-15T06:33:09.291Z,89661.53
2022-12-15T06:35:36.205Z,89659.34
2022-12-15T06:38:02.542Z,89676.06
2022-12-15T06:40:31.015Z,89693.16
2022-12-15T06:42:59.678Z,89700.47
2022-12-15T06:45:25.959Z,89692.91
2022-12-15T06:47:55.341Z,89700.06
2022-12-15T06:50:25.847Z,89712.22
2022-12-15T06:52:52.127Z,89719.41
2022-12-15T06:55:18.417Z,89717.72
2022-12-15T06:57:47.043Z,89723.31
2022-12-15T07:00:13.577Z,89733.63
2022-12-15T07:02:41.565Z,89735.28
2022-12-15T07:05:09.192Z,89731.38
2022-12-15T07:07:35.463Z,89738.59
2022-12-15T07:10:01.747Z,89739.84
2022-12-15T07:12:28.014Z,89745.38
2022-12-15T07:14:54.274Z,89744.88
2022-12-15T07:17:20.553Z,89749.63
2022-12-15T07:19:46.848Z,89749.34
2022-12-15T07:22:13.238Z,89756.16
2022-12-15T07:24:39.514Z,89754.88
2022-12-15T07:27:05.790Z,89761.44
2022-12-15T07:29:32.144Z,89763.53
2022-12-15T07:32:00.703Z,89766.97
2022-12-15T07:34:27.066Z,89773.63
2022-12-15T07:36:53.349Z,89769.03
2022-12-15T07:39:19.636Z,89765.56
2022-12-15T07:41:46.673Z,89764.56
2022-12-15T07:44:14.624Z,89767.41
2022-12-15T07:46:41.023Z,89767.16
2022-12-15T07:49:07.321Z,89769.34
2022-12-15T07:51:33.608Z,89755.38
2022-12-15T07:53:59.972Z,89759.81
2022-12-15T07:56:26.333Z,89766.00
2022-12-15T07:58:53.009Z,89760.06
2022-12-15T08:01:19.408Z,89746.22
2022-12-15T08:03:45.885Z,89745.34
2022-12-15T08:06:12.969Z,89731.75
2022-12-15T08:08:39.375Z,89727.44
2022-12-15T08:11:08.045Z,89724.72
2022-12-15T08:16:20.918Z,89717.78
2022-12-15T08:18:47.208Z,89714.63
2022-12-15T08:21:14.466Z,89721.53
2022-12-15T08:23:40.751Z,89728.91
2022-12-15T08:26:13.832Z,89727.84
2022-12-15T08:28:40.295Z,89734.06
2022-12-15T08:31:07.587Z,89737.81
2022-12-15T08:33:34.399Z,89741.25
2022-12-15T08:36:02.638Z,89748.59
2022-12-15T08:38:29.332Z,89753.13
2022-12-15T08:40:55.612Z,89752.00
2022-12-15T08:43:21.884Z,89757.41
2022-12-15T08:45:48.201Z,89762.00
2022-12-15T08:48:16.638Z,89755.94
2022-12-15T08:50:44.080Z,89754.56
2022-12-15T08:53:32.798Z,89748.63
2022-12-15T08:56:01.628Z,89741.00
2022-12-15T08:58:27.940Z,89738.22
2022-12-15T09:00:59.273Z,89739.19
2022-12-15T09:03:25.565Z,89726.59
2022-12-15T09:05:51.844Z,89730.56
2022-12-15T09:08:18.123Z,89730.88
2022-12-15T09:10:44.405Z,89727.84
2022-12-15T09:13:10.660Z,89718.88
2022-12-15T09:16:07.675Z,89719.28
2022-12-15T09:18:23.308Z,89725.59
2022-12-15T09:20:49.610Z,89725.06
2022-12-15T09:23:15.889Z,89722.34
2022-12-15T09:25:42.526Z,89726.31
2022-12-15T09:28:08.810Z,89729.50
2022-12-15T09:30:35.143Z,89722.88
2022-12-15T09:33:01.471Z,89719.00
2022-12-15T09:35:27.791Z,89714.16
2022-12-15T09:37:54.051Z,89714.28
2022-12-15T09:40:20.320Z,89724.91
2022-12-15T09:42:59.786Z,89722.69
2022-12-15T09:45:37.379Z,89723.91
2022-12-15T09:48:05.106Z,89729.72
2022-12-15T09:50:33.916Z,89721.00
2022-12-15T09:53:00.257Z,89722.09
2022-12-15T09:55:27.452Z,89724.66
2022-12-15T10:00:55.632Z,89720.41
2022-12-15T10:03:35.103Z,89715.81
2022-12-15T10:06:18.961Z,89709.75
2022-12-15T10:08:53.709Z,89707.53
2022-12-15T10:11:21.577Z,89704.88
2022-12-15T10:13:48.064Z,89694.63
2022-12-15T10:16:24.201Z,89683.09
2022-12-15T10:18:59.434Z,89672.38
2022-12-15T10:21:28.036Z,89682.31
2022-12-15T10:23:55.124Z,89674.47
2022-12-15T10:26:23.257Z,89677.50
2022-12-15T10:28:59.173Z,89667.50
2022-12-15T10:31:54.816Z,89662.00
2022-12-15T10:34:30.079Z,89669.50
2022-12-15T10:36:56.532Z,89661.34
2022-12-15T10:39:23.307Z,89657.31
2022-12-15T10:42:08.443Z,89648.72
2022-12-15T10:44:38.143Z,89647.19
2022-12-15T10:47:11.573Z,89644.41
2022-12-15T10:49:38.055Z,89634.84
2022-12-15T10:52:04.427Z,89636.41
2022-12-15T10:54:36.781Z,89632.69
2022-12-15T10:57:14.477Z,89634.25
2022-12-15T10:59:40.794Z,89636.13
2022-12-15T11:02:27.706Z,89631.59
2022-12-15T11:04:54.690Z,89631.31
2022-12-15T11:07:21.324Z,89641.78
2022-12-15T11:09:47.613Z,89622.25
2022-12-15T11:12:36.092Z,89607.97
2022-12-15T11:15:02.642Z,89609.50
2022-12-15T11:17:36.412Z,89602.28
2022-12-15T11:20:03.886Z,89590.13
2022-12-15T11:22:39.841Z,89595.00
2022-12-15T11:25:12.114Z,89578.06
2022-12-15T11:27:38.881Z,89569.44
2022-12-15T11:30:15.313Z,89568.22
2022-12-15T11:32:42.706Z,89560.94
2022-12-15T11:35:15.853Z,89551.59
2022-12-15T11:37:42.949Z,89554.34
2022-12-15T11:40:28.024Z,89552.41
2022-12-15T11:42:54.307Z,89536.38
2022-12-15T11:45:35.504Z,89526.88
2022-12-15T11:48:04.767Z,89518.44
2022-12-15T11:50:41.205Z,89521.19
2022-12-15T11:53:10.057Z,89520.44
2022-12-15T11:55:41.436Z,89524.13
2022-12-15T11:58:10.858Z,89512.72
2022-12-15T12:00:42.233Z,89513.44
2022-12-15T12:03:14.770Z,89507.72
2022-12-15T12:05:44.019Z,89504.03
2022-12-15T12:08:32.603Z,89512.53
2022-12-15T12:11:02.205Z,89503.16
2022-12-15T12:13:30.257Z,89492.09
2022-12-15T12:15:59.931Z,89480.47
2022-12-15T12:18:27.433Z,89485.56
2022-12-15T12:20:58.884Z,89478.19
2022-12-15T12:23:31.604Z,89473.44
2022-12-15T12:26:02.989Z,89469.34
2022-12-15T12:28:33.384Z,89467.44
2022-12-15T12:31:00.319Z,89457.63
2022-12-15T12:33:29.616Z,89463.78
2022-12-15T12:35:57.417Z,89466.81
2022-12-15T12:38:26.933Z,89457.19
2022-12-15T12:41:28.444Z,89448.97
2022-12-15T12:43:58.243Z,89441.94
2022-12-15T12:46:31.093Z,89435.97
2022-12-15T12:49:05.061Z,89434.31
2022-12-15T12:51:31.742Z,89430.56
2022-12-15T12:53:58.255Z,89428.28
2022-12-15T12:56:43.960Z,89433.09
2022-12-15T12:59:29.889Z,89431.94
2022-12-15T13:02:14.658Z,89422.41
2022-12-15T13:04:41.854Z,89413.25
2022-12-15T13:07:27.005Z,89412.84
2022-12-15T13:10:02.494Z,89400.84
2022-12-15T13:12:52.906Z,89405.63
2022-12-15T13:15:29.618Z,89390.16
2022-12-15T13:18:06.364Z,89397.22
2022-12-15T13:20:33.122Z,89401.34
2022-12-15T13:23:18.895Z,89395.22
2022-12-15T13:26:05.481Z,89405.44
2022-12-15T13:28:39.608Z,89395.22
2022-12-15T13:31:21.424Z,89403.44
2022-12-15T13:33:50.993Z,89401.78
2022-12-15T13:36:36.003Z,89397.28
2022-12-15T13:39:22.490Z,89395.97
2022-12-15T13:42:31.540Z,89396.34
2022-12-15T13:44:39.460Z,89388.88
2022-12-15T13:47:06.865Z,89386.94
2022-12-15T13:49:33.966Z,89388.78
2022-12-15T13:52:00.816Z,89399.66
2022-12-15T13:54:46.202Z,89393.34
2022-12-15T13:57:14.026Z,89396.94
2022-12-15T13:59:50.519Z,89392.09
2022-12-15T14:02:23.313Z,89391.75
2022-12-15T14:05:09.942Z,89399.03
2022-12-15T14:07:36.222Z,89396.53
2022-12-15T14:10:04.017Z,89397.22
2022-12-15T14:12:30.269Z,89404.84
2022-12-15T14:14:56.595Z,89403.88
2022-12-15T14:17:22.873Z,89405.59
2022-12-15T14:19:50.885Z,89409.97
2022-12-15T14:25:13.760Z,89415.06
2022-12-15T14:27:40.053Z,89402.88
2022-12-15T14:30:15.823Z,89407.97
2022-12-15T14:32:42.228Z,89411.00
2022-12-15T14:35:17.921Z,89419.44
2022-12-15T14:37:44.659Z,89411.88
2022-12-15T14:40:15.769Z,89413.88
2022-12-15T14:42:42.448Z,89421.97
2022-12-15T14:45:17.185Z,89431.66
2022-12-15T14:48:05.779Z,89439.06
2022-12-15T14:50:33.748Z,89443.00
2022-12-15T14:53:04.688Z,89441.41
2022-12-15T14:55:31.085Z,89441.28
2022-12-15T14:57:57.432Z,89442.28
2022-12-15T15:00:28.297Z,89440.22
2022-12-15T15:03:03.696Z,89721.19
2022-12-15T15:03:14.309Z,89413.59
2022-12-15T15:03:18.280Z,89432.47
2022-12-15T15:05:46.545Z,89433.47
2022-12-15T15:08:26.560Z,89424.97
2022-12-15T15:10:56.386Z,89419.50
2022-12-15T15:13:23.441Z,89418.25
2022-12-15T15:15:53.130Z,89417.41
2022-12-15T15:18:20.279Z,89412.69
2022-12-15T15:20:49.529Z,89404.13
2022-12-15T15:23:16.791Z,89406.31
2022-12-15T15:25:49.188Z,89408.28
2022-12-15T15:28:18.439Z,89409.09
2022-12-15T15:30:48.912Z,89403.69
2022-12-15T15:33:15.336Z,89403.81
2022-12-15T15:35:41.836Z,89403.63
2022-12-15T15:38:14.205Z,89406.84
2022-12-15T15:40:40.480Z,89402.28
2022-12-15T15:43:12.744Z,89398.91
2022-12-15T15:45:40.117Z,89402.56
2022-12-15T15:48:06.404Z,89398.91
2022-12-15T15:50:32.872Z,89391.41
2022-12-15T15:52:59.262Z,89397.94
2022-12-15T15:55:26.941Z,89393.59
2022-12-15T15:57:53.357Z,89384.00
2022-12-15T16:00:21.331Z,89384.19
2022-12-15T16:02:47.872Z,89378.84
2022-12-15T16:05:14.485Z,89378.94
2022-12-15T16:07:40.860Z,89378.50
2022-12-15T16:10:14.126Z,89377.34
2022-12-15T16:12:42.310Z,89385.94
2022-12-15T16:15:14.701Z,89380.47
2022-12-15T16:17:41.419Z,89373.31
2022-12-15T16:20:08.385Z,89371.81
2022-12-15T16:22:34.861Z,89373.66
2022-12-15T16:25:01.179Z,89378.00
2022-12-15T16:27:27.458Z,89372.97
2022-12-15T16:29:53.730Z,89365.19
2022-12-15T16:32:20.053Z,89355.22
2022-12-15T16:34:46.650Z,89354.91
2022-12-15T16:37:26.202Z,89347.78
2022-12-15T16:39:52.859Z,89336.72
2022-12-15T16:42:19.140Z,89337.38
2022-12-15T16:44:45.416Z,89338.31
2022-12-15T16:47:11.739Z,89334.84
2022-12-15T16:49:40.333Z,89334.41
2022-12-15T16:52:08.113Z,89326.88
2022-12-15T16:54:34.367Z,89315.06
2022-12-15T16:57:00.641Z,89309.72
2022-12-15T16:59:35.262Z,89306.34
2022-12-15T17:02:02.310Z,89302.00
2022-12-15T17:04:28.709Z,89302.47
2022-12-15T17:06:54.977Z,89300.97
2022-12-15T17:09:22.097Z,89304.34
2022-12-15T17:11:48.380Z,89316.38
2022-12-15T17:14:15.686Z,89320.88
2022-12-15T17:16:41.973Z,89319.13
2022-12-15T17:19:08.613Z,89324.66
2022-12-15T17:21:35.459Z,89318.72
2022-12-15T17:24:06.256Z,89319.97
2022-12-15T17:26:33.308Z,89321.34
2022-12-15T17:29:00.839Z,89327.28
2022-12-15T17:31:33.239Z,89323.97
2022-12-15T17:34:02.451Z,89320.44
2022-12-15T17:36:28.758Z,89328.78
2022-12-15T17:38:55.690Z,89320.44
2022-12-15T17:41:50.369Z,89323.97
2022-12-15T17:44:33.728Z,89309.34
2022-12-15T17:47:02.016Z,89305.44
2022-12-15T17:49:34.737Z,89304.88
2022-12-15T17:52:02.256Z,89300.41
2022-12-15T17:54:29.611Z,89306.09
2022-12-15T17:56:55.888Z,89308.31
2022-12-15T17:59:22.366Z,89306.25
2022-12-15T18:01:49.038Z,89304.50
2022-12-15T18:04:15.633Z,89291.69
2022-12-15T18:06:42.145Z,89286.69
2022-12-15T18:09:17.792Z,89289.41
2022-12-15T18:11:46.471Z,89277.75
2022-12-15T18:14:14.140Z,89276.81
2022-12-15T18:16:40.751Z,89275.44
2022-12-15T18:19:07.142Z,89269.03
2022-12-15T18:21:33.423Z,89273.59
2022-12-15T18:23:59.698Z,89272.81
2022-12-15T18:26:25.956Z,89273.38
2022-12-15T18:28:52.250Z,89281.28
2022-12-15T18:31:27.715Z,89278.19
2022-12-15T18:34:00.989Z,89276.13
2022-12-15T18:36:30.494Z,89278.66
2022-12-15T18:38:56.776Z,89276.00
2022-12-15T18:41:23.038Z,89276.88
2022-12-15T18:43:49.328Z,89276.31
2022-12-15T18:46:15.869Z,89282.03
2022-12-15T18:48:42.424Z,89273.88
2022-12-15T18:51:15.298Z,89289.88
2022-12-15T18:53:41.597Z,89293.69
2022-12-15T18:56:08.731Z,89294.88
2022-12-15T18:58:35.676Z,89302.19
2022-12-15T19:01:02.227Z,89295.31
2022-12-15T19:03:28.665Z,89291.31
2022-12-15T19:05:58.098Z,89285.50
2022-12-15T19:08:27.386Z,89277.84
2022-12-15T19:10:53.676Z,89278.50
2022-12-15T19:13:20.819Z,89271.09
2022-12-15T19:15:47.153Z,89267.66
2022-12-15T19:18:35.652Z,89276.47
2022-12-15T19:21:48.001Z,89278.44
2022-12-15T19:24:18.226Z,89276.25
2022-12-15T19:26:44.501Z,89271.56
2022-12-15T19:29:17.670Z,89277.28
2022-12-15T19:31:44.175Z,89281.84
2022-12-15T19:34:10.853Z,89275.44
2022-12-15T19:36:37.167Z,89278.38
2022-12-15T19:39:03.469Z,89275.63
2022-12-15T19:41:30.570Z,89282.34
2022-12-15T19:43:56.854Z,89280.88
2022-12-15T19:46:23.758Z,89276.03
2022-12-15T19:48:50.205Z,89278.59
2022-12-15T19:51:17.207Z,89287.28
2022-12-15T19:53:44.183Z,89292.31
2022-12-15T19:56:11.455Z,89291.16
2022-12-15T19:58:38.620Z,89302.50
2022-12-15T20:01:05.938Z,89292.56
2022-12-15T20:03:32.950Z,89300.00
2022-12-15T20:05:59.915Z,89303.66
2022-12-15T20:08:29.989Z,89300.09
2022-12-15T20:10:56.315Z,89297.59
2022-12-15T20:13:22.660Z,89296.47
2022-12-15T20:15:48.975Z,89303.59
2022-12-15T20:18:15.357Z,89293.19
2022-12-15T20:20:41.728Z,89285.16
2022-12-15T20:23:12.519Z,89297.97
2022-12-15T20:25:38.798Z,89304.00
2022-12-15T20:28:05.107Z,89301.97
2022-12-15T20:30:35.320Z,89297.66
2022-12-15T20:33:04.364Z,89291.00
2022-12-15T20:35:32.904Z,89302.09
2022-12-15T20:37:59.305Z,89299.56
2022-12-15T20:40:26.572Z,89296.81
2022-12-15T20:42:52.924Z,89299.16
2022-12-15T20:45:19.972Z,89299.31
2022-12-15T20:47:46.488Z,89303.84
2022-12-15T20:50:26.883Z,89306.63
2022-12-15T20:52:53.221Z,89310.63
2022-12-15T20:55:21.443Z,89312.94
2022-12-15T20:57:47.959Z,89323.19
2022-12-15T21:00:14.448Z,89329.38
2022-12-15T21:02:40.868Z,89327.34
2022-12-15T21:05:08.272Z,89328.72
2022-12-15T21:07:34.564Z,89330.50
2022-12-15T21:10:00.893Z,89334.50
2022-12-15T21:12:27.450Z,89334.84
2022-12-15T21:14:54.150Z,89331.75
2022-12-15T21:17:21.058Z,89331.28
2022-12-15T21:19:47.395Z,89332.44
2022-12-15T21:22:23.248Z,89340.53
2022-12-15T21:24:49.873Z,89343.06
2022-12-15T21:27:16.750Z,89342.78
2022-12-15T21:29:46.102Z,89343.41
2022-12-15T21:32:16.863Z,89346.59
2022-12-15T21:34:43.141Z,89347.34
2022-12-15T21:37:17.487Z,89355.78
2022-12-15T21:39:43.760Z,89359.78
2022-12-15T21:42:14.071Z,89366.94
2022-12-15T21:44:41.474Z,89368.41
2022-12-15T21:47:47.202Z,89373.75
2022-12-15T21:50:13.961Z,89371.13
2022-12-15T21:52:40.218Z,89379.50
2022-12-15T21:55:13.954Z,89382.63
2022-12-15T21:57:40.315Z,89388.69
2022-12-15T22:00:13.359Z,89387.78
2022-12-15T22:02:39.733Z,89385.88
2022-12-15T22:05:19.667Z,89400.47
2022-12-15T22:07:45.990Z,89414.25
2022-12-15T22:10:12.258Z,89408.75
2022-12-15T22:12:38.533Z,89404.47
2022-12-15T22:15:12.103Z,89408.81
2022-12-15T22:17:38.356Z,89417.19
2022-12-15T22:20:30.801Z,89413.44
2022-12-15T22:22:57.296Z,89405.25
2022-12-15T22:25:24.190Z,89407.47
2022-12-15T22:27:50.476Z,89409.53
2022-12-15T22:30:19.401Z,89402.88
2022-12-15T22:32:45.708Z,89402.41
2022-12-15T22:35:18.990Z,89397.16
2022-12-15T22:37:45.468Z,89400.84
2022-12-15T22:40:12.107Z,89401.47
2022-12-15T22:42:38.876Z,89399.44
2022-12-15T22:45:05.828Z,89384.25
2022-12-15T22:47:32.248Z,89391.16
2022-12-15T22:49:58.525Z,89393.69
2022-12-15T22:52:24.789Z,89395.59
2022-12-15T22:54:52.874Z,89389.13
2022-12-15T22:57:25.867Z,89393.78
2022-12-15T22:59:53.785Z,89395.28
2022-12-15T23:02:20.942Z,89384.13
2022-12-15T23:04:47.237Z,89385.56
2022-12-15T23:07:13.699Z,89378.38
2022-12-15T23:09:39.980Z,89379.88
2022-12-15T23:12:06.284Z,89379.50
2022-12-15T23:14:51.139Z,89368.03
2022-12-15T23:17:17.905Z,89364.34
2022-12-15T23:19:44.576Z,89360.00
2022-12-15T23:22:10.844Z,89355.56
2022-12-15T23:24:37.118Z,89352.56
2022-12-15T23:27:03.395Z,89359.66
2022-12-15T23:29:29.722Z,89362.78
2022-12-15T23:31:55.997Z,89373.69
2022-12-15T23:34:22.468Z,89378.69
2022-12-15T23:36:48.790Z,89383.91
2022-12-15T23:39:15.096Z,89379.28
2022-12-15T23:41:41.552Z,89389.16
2022-12-15T23:44:07.827Z,89387.19
2022-12-15T23:46:34.618Z,89388.28
2022-12-15T23:49:01.113Z,89393.78
2022-12-15T23:51:27.401Z,89390.53
2022-12-15T23:53:53.714Z,89399.44
2022-12-15T23:56:22.480Z,89409.19
2022-12-15T23:58:53.521Z,89402.06
